Time;durP1;ratioP1;P1;durP2;ratioP2;P2;SDS_P1;SDS_P2;PMS_P1;PMS_P2;Temp;Humidity;BMP_temperature;BMP_pressure;BME280_temperature;BME280_humidity;BME280_pressure;Samples;Min_cycle;Max_cycle;Signal;HPM_P1;HPM_P2
2022/04/07 00:01:57;;;;;;;11.73;7.53;;;;;;;;;;5079897;28;20648;-47
2022/04/07 00:04:22;;;;;;;15.50;9.73;;;;;;;;;;5082768;28;20653;-46
2022/04/07 00:06:47;;;;;;;16.45;9.98;;;;;;;;;;5079693;28;20071;-44
2022/04/07 00:09:13;;;;;;;9.38;7.55;;;;;;;;;;5082184;28;20058;-46
2022/04/07 00:11:38;;;;;;;8.68;7.68;;;;;;;;;;5076277;28;20120;-44
2022/04/07 00:14:03;;;;;;;14.55;9.75;;;;;;;;;;5082538;28;20075;-45
2022/04/07 00:16:29;;;;;;;13.38;8.38;;;;;;;;;;5080619;28;20119;-45
2022/04/07 00:18:54;;;;;;;10.68;8.52;;;;;;;;;;5083679;28;20079;-44
2022/04/07 00:21:34;;;;;;;12.93;9.65;;;;;;;;;;5084867;28;20154;-48
2022/04/07 00:24:00;;;;;;;12.02;9.35;;;;;;;;;;5078685;28;20079;-45
2022/04/07 00:26:25;;;;;;;11.50;8.70;;;;;;;;;;5075969;28;20554;-45
2022/04/07 00:28:52;;;;;;;11.80;9.63;;;;;;;;;;5083645;28;20105;-48
2022/04/07 00:31:17;;;;;;;14.32;8.45;;;;;;;;;;5084515;28;20513;-50
2022/04/07 00:33:43;;;;;;;13.48;8.20;;;;;;;;;;5084849;28;20059;-47
2022/04/07 00:36:08;;;;;;;15.18;8.50;;;;;;;;;;5082619;28;20721;-45
2022/04/07 00:38:33;;;;;;;12.52;8.07;;;;;;;;;;5081738;28;20055;-45
2022/04/07 00:40:59;;;;;;;9.18;7.15;;;;;;;;;;5083448;28;20497;-47
2022/04/07 00:43:34;;;;;;;14.77;6.10;;;;;;;;;;5081678;28;20062;-44
2022/04/07 00:46:01;;;;;;;11.95;4.70;;;;;;;;;;5083063;28;20040;-45
2022/04/07 00:48:26;;;;;;;6.78;6.07;;;;;;;;;;5080978;28;20043;-45
2022/04/07 00:50:52;;;;;;;7.00;6.30;;;;;;;;;;5075544;28;20522;-46
2022/04/07 00:53:18;;;;;;;5.78;4.95;;;;;;;;;;5078996;28;20499;-45
2022/04/07 00:55:43;;;;;;;6.53;5.05;;;;;;;;;;5081823;28;20032;-48
2022/04/07 00:58:09;;;;;;;5.63;4.80;;;;;;;;;;5081097;28;20178;-48
2022/04/07 01:00:34;;;;;;;7.70;6.03;;;;;;;;;;5084910;28;20071;-45
2022/04/07 01:03:00;;;;;;;5.20;4.78;;;;;;;;;;5086361;28;20044;-50
2022/04/07 01:05:25;;;;;;;12.57;5.70;;;;;;;;;;5087941;28;20074;-46
2022/04/07 01:07:51;;;;;;;9.35;5.75;;;;;;;;;;5086112;28;20040;-46
2022/04/07 01:10:19;;;;;;;7.00;5.93;;;;;;;;;;5087020;28;20083;-44
2022/04/07 01:12:44;;;;;;;8.45;6.35;;;;;;;;;;5084939;28;20040;-45
2022/04/07 01:15:10;;;;;;;9.85;7.75;;;;;;;;;;5084046;28;20058;-44
2022/04/07 01:17:35;;;;;;;8.73;7.85;;;;;;;;;;5084205;28;20052;-44
2022/04/07 01:20:01;;;;;;;9.30;6.90;;;;;;;;;;5082032;28;20090;-50
2022/04/07 01:22:27;;;;;;;7.05;6.35;;;;;;;;;;5084964;28;20074;-46
2022/04/07 01:24:52;;;;;;;7.00;6.15;;;;;;;;;;5084661;28;20522;-45
2022/04/07 01:27:18;;;;;;;6.25;5.50;;;;;;;;;;5087443;28;20048;-50
2022/04/07 01:29:44;;;;;;;9.35;3.55;;;;;;;;;;5081007;28;20035;-43
2022/04/07 01:32:28;;;;;;;4.95;3.78;;;;;;;;;;5084789;28;20059;-47
2022/04/07 01:34:53;;;;;;;5.50;4.70;;;;;;;;;;5087417;28;20073;-47
2022/04/07 01:37:19;;;;;;;5.70;3.60;;;;;;;;;;5085414;28;20150;-43
2022/04/07 01:39:44;;;;;;;4.20;2.63;;;;;;;;;;5084901;28;20048;-44
2022/04/07 01:42:12;;;;;;;5.03;2.50;;;;;;;;;;5085029;28;20059;-45
2022/04/07 01:44:40;;;;;;;5.10;3.88;;;;;;;;;;5087214;28;20496;-44
2022/04/07 01:47:07;;;;;;;5.78;4.70;;;;;;;;;;5082551;28;20040;-45
2022/04/07 01:49:33;;;;;;;6.10;4.28;;;;;;;;;;5083117;28;20069;-47
2022/04/07 01:51:59;;;;;;;5.80;4.70;;;;;;;;;;5083628;28;20052;-49
2022/04/07 01:54:25;;;;;;;5.03;4.53;;;;;;;;;;5083847;28;20068;-47
2022/04/07 01:56:50;;;;;;;4.93;4.43;;;;;;;;;;5087600;28;20660;-46
2022/04/07 01:59:16;;;;;;;6.18;4.93;;;;;;;;;;5084906;28;20044;-48
2022/04/07 02:01:42;;;;;;;4.85;4.05;;;;;;;;;;5084690;28;20087;-43
2022/04/07 02:04:07;;;;;;;6.65;6.05;;;;;;;;;;5085212;28;20032;-47
2022/04/07 02:06:32;;;;;;;6.93;4.10;;;;;;;;;;5087453;28;20097;-44
2022/04/07 02:08:58;;;;;;;4.50;3.10;;;;;;;;;;5083347;28;20044;-45
2022/04/07 02:11:23;;;;;;;2.95;2.05;;;;;;;;;;5081876;28;20638;-46
2022/04/07 02:13:49;;;;;;;5.55;3.72;;;;;;;;;;5087532;28;20044;-49
2022/04/07 02:16:14;;;;;;;5.30;3.55;;;;;;;;;;5084750;28;20040;-46
2022/04/07 02:18:39;;;;;;;4.63;4.15;;;;;;;;;;5082583;28;20077;-46
2022/04/07 02:21:05;;;;;;;5.28;3.88;;;;;;;;;;5080156;28;20044;-45
2022/04/07 02:23:30;;;;;;;6.80;3.20;;;;;;;;;;5086272;28;20029;-49
2022/04/07 02:25:56;;;;;;;4.15;2.85;;;;;;;;;;5087289;28;21257;-49
2022/04/07 02:28:21;;;;;;;4.00;2.88;;;;;;;;;;5075649;28;20142;-46
2022/04/07 02:30:47;;;;;;;3.30;2.97;;;;;;;;;;5086554;28;20206;-44
2022/04/07 02:33:12;;;;;;;6.72;5.03;;;;;;;;;;5086343;28;20747;-50
2022/04/07 02:35:38;;;;;;;5.78;5.00;;;;;;;;;;5080584;28;20043;-47
2022/04/07 02:38:03;;;;;;;5.82;4.10;;;;;;;;;;5087421;28;20162;-44
2022/04/07 02:40:29;;;;;;;7.57;2.65;;;;;;;;;;5082219;28;20051;-44
2022/04/07 02:42:54;;;;;;;6.05;3.75;;;;;;;;;;5079123;28;20036;-48
2022/04/07 02:45:19;;;;;;;4.53;3.17;;;;;;;;;;5085365;28;20651;-47
2022/04/07 02:47:44;;;;;;;5.97;3.65;;;;;;;;;;5085152;28;20036;-49
2022/04/07 02:50:10;;;;;;;9.15;5.40;;;;;;;;;;5082704;28;20059;-46
2022/04/07 02:52:35;;;;;;;4.68;3.97;;;;;;;;;;5078840;28;20048;-46
2022/04/07 02:55:01;;;;;;;4.55;3.63;;;;;;;;;;5085453;28;20036;-46
2022/04/07 02:57:30;;;;;;;6.88;3.55;;;;;;;;;;5084993;28;20660;-46
2022/04/07 02:59:56;;;;;;;3.95;3.47;;;;;;;;;;5082272;28;20092;-46
2022/04/07 03:02:21;;;;;;;8.35;4.53;;;;;;;;;;5082324;28;20089;-44
2022/04/07 03:04:47;;;;;;;3.53;3.15;;;;;;;;;;5083526;28;20032;-46
2022/04/07 03:07:13;;;;;;;5.72;3.75;;;;;;;;;;5082563;28;20044;-49
2022/04/07 03:09:40;;;;;;;5.28;3.50;;;;;;;;;;5079697;28;20056;-46
2022/04/07 03:12:05;;;;;;;4.00;3.50;;;;;;;;;;5081652;28;20053;-44
2022/04/07 03:14:30;;;;;;;4.25;3.28;;;;;;;;;;5086061;28;20115;-43
2022/04/07 03:16:57;;;;;;;4.38;2.88;;;;;;;;;;5080314;28;20696;-48
2022/04/07 03:19:22;;;;;;;4.22;2.35;;;;;;;;;;5084314;28;20078;-44
2022/04/07 03:21:47;;;;;;;2.55;2.03;;;;;;;;;;5081425;28;20039;-46
2022/04/07 03:24:13;;;;;;;4.65;3.88;;;;;;;;;;5082094;28;20040;-47
2022/04/07 03:26:38;;;;;;;7.28;5.40;;;;;;;;;;5083457;28;20642;-45
2022/04/07 03:29:04;;;;;;;3.08;2.55;;;;;;;;;;5085053;28;20130;-47
2022/04/07 03:31:29;;;;;;;5.47;3.70;;;;;;;;;;5081602;28;20782;-46
2022/04/07 03:33:54;;;;;;;6.13;4.53;;;;;;;;;;5086196;28;20042;-46
2022/04/07 03:36:20;;;;;;;5.30;3.80;;;;;;;;;;5080034;28;20571;-47
2022/04/07 03:38:45;;;;;;;5.45;3.50;;;;;;;;;;5076787;28;20044;-46
2022/04/07 03:41:11;;;;;;;17.55;5.22;;;;;;;;;;5082138;28;20070;-48
2022/04/07 03:43:36;;;;;;;3.47;2.40;;;;;;;;;;5081142;28;20052;-49
2022/04/07 03:46:02;;;;;;;6.45;3.95;;;;;;;;;;5084545;28;20044;-48
2022/04/07 03:48:27;;;;;;;6.03;4.57;;;;;;;;;;5082294;28;20051;-47
2022/04/07 03:50:53;;;;;;;4.53;3.67;;;;;;;;;;5085231;28;20387;-51
2022/04/07 03:53:18;;;;;;;7.00;3.85;;;;;;;;;;5082684;28;20044;-49
2022/04/07 03:55:44;;;;;;;4.78;2.88;;;;;;;;;;5082440;28;20048;-50
2022/04/07 03:58:09;;;;;;;4.68;3.03;;;;;;;;;;5078427;28;20496;-45
2022/04/07 04:00:34;;;;;;;4.82;3.58;;;;;;;;;;5080110;28;20052;-45
2022/04/07 04:03:00;;;;;;;4.80;3.40;;;;;;;;;;5084272;28;20051;-45
2022/04/07 04:05:25;;;;;;;7.18;3.65;;;;;;;;;;5079891;28;20040;-44
2022/04/07 04:07:50;;;;;;;3.95;3.40;;;;;;;;;;5083598;28;20047;-44
2022/04/07 04:10:16;;;;;;;4.90;3.20;;;;;;;;;;5082831;28;20053;-49
2022/04/07 04:12:41;;;;;;;6.35;3.78;;;;;;;;;;5083019;28;20040;-47
2022/04/07 04:15:06;;;;;;;7.75;3.67;;;;;;;;;;5079506;28;20048;-44
2022/04/07 04:17:32;;;;;;;4.97;3.40;;;;;;;;;;5080470;28;20515;-46
2022/04/07 04:19:57;;;;;;;5.40;4.43;;;;;;;;;;5082016;28;20047;-45
2022/04/07 04:22:23;;;;;;;5.82;4.05;;;;;;;;;;5083139;28;20036;-46
2022/04/07 04:24:48;;;;;;;4.43;3.35;;;;;;;;;;5078536;28;20178;-42
2022/04/07 04:27:14;;;;;;;7.40;4.75;;;;;;;;;;5082492;28;20044;-45
2022/04/07 04:29:40;;;;;;;5.22;3.08;;;;;;;;;;5083938;28;20033;-43
2022/04/07 04:32:05;;;;;;;3.83;2.78;;;;;;;;;;5080355;28;20059;-47
2022/04/07 04:34:30;;;;;;;6.85;4.28;;;;;;;;;;5078951;28;20063;-44
2022/04/07 04:36:56;;;;;;;4.45;2.85;;;;;;;;;;5081178;28;20071;-46
2022/04/07 04:39:21;;;;;;;6.68;3.25;;;;;;;;;;5089268;28;20043;-44
2022/04/07 04:41:46;;;;;;;5.55;4.45;;;;;;;;;;5084892;28;20090;-43
2022/04/07 04:44:12;;;;;;;7.45;4.13;;;;;;;;;;5088421;28;20479;-45
2022/04/07 04:46:37;;;;;;;4.05;2.83;;;;;;;;;;5085404;28;20048;-44
2022/04/07 04:49:03;;;;;;;7.63;3.85;;;;;;;;;;5086417;28;20059;-46
2022/04/07 04:51:28;;;;;;;8.25;3.50;;;;;;;;;;5068948;28;20056;-48
2022/04/07 04:53:54;;;;;;;5.45;3.30;;;;;;;;;;5084073;28;20564;-49
2022/04/07 04:56:20;;;;;;;4.03;2.22;;;;;;;;;;5087286;28;20052;-47
2022/04/07 04:58:45;;;;;;;5.13;2.63;;;;;;;;;;5086274;28;20066;-48
2022/04/07 05:01:10;;;;;;;2.50;2.30;;;;;;;;;;5085253;28;20154;-46
2022/04/07 05:03:36;;;;;;;4.40;2.85;;;;;;;;;;5086571;28;20044;-45
2022/04/07 05:06:02;;;;;;;6.50;5.30;;;;;;;;;;5086383;28;20099;-46
2022/04/07 05:08:27;;;;;;;5.00;4.47;;;;;;;;;;5085309;28;20555;-50
2022/04/07 05:10:53;;;;;;;3.13;2.67;;;;;;;;;;5086809;28;20044;-51
2022/04/07 05:13:18;;;;;;;4.18;2.42;;;;;;;;;;5085888;28;20036;-51
2022/04/07 05:15:43;;;;;;;7.35;3.15;;;;;;;;;;5082477;28;20054;-53
2022/04/07 05:18:09;;;;;;;11.52;4.38;;;;;;;;;;5088004;28;20125;-49
2022/04/07 05:20:35;;;;;;;3.42;2.80;;;;;;;;;;5088115;28;20570;-48
2022/04/07 05:23:00;;;;;;;5.20;3.38;;;;;;;;;;5081557;28;20503;-51
2022/04/07 05:25:26;;;;;;;23.73;4.13;;;;;;;;;;5085016;28;20051;-53
2022/04/07 05:27:51;;;;;;;5.60;3.72;;;;;;;;;;5080168;28;20055;-52
2022/04/07 05:30:16;;;;;;;8.75;7.35;;;;;;;;;;5086838;28;20085;-49
2022/04/07 05:32:43;;;;;;;16.15;4.28;;;;;;;;;;5088102;28;20058;-46
2022/04/07 05:35:09;;;;;;;5.43;4.93;;;;;;;;;;5083644;28;20548;-47
2022/04/07 05:37:35;;;;;;;7.32;4.38;;;;;;;;;;5086815;28;20031;-48
2022/04/07 05:40:00;;;;;;;4.80;3.97;;;;;;;;;;5084010;28;20513;-48
2022/04/07 05:42:25;;;;;;;6.85;4.70;;;;;;;;;;5083876;28;20424;-45
2022/04/07 05:44:50;;;;;;;8.13;3.67;;;;;;;;;;5087074;28;20047;-48
2022/04/07 05:47:16;;;;;;;12.57;5.18;;;;;;;;;;5081714;28;20032;-48
2022/04/07 05:49:41;;;;;;;4.78;2.50;;;;;;;;;;5084955;28;20040;-49
2022/04/07 05:52:06;;;;;;;8.32;2.80;;;;;;;;;;5084495;28;20040;-47
2022/04/07 05:54:32;;;;;;;7.93;3.70;;;;;;;;;;5084513;28;20047;-50
2022/04/07 05:56:57;;;;;;;2.72;2.28;;;;;;;;;;5087241;28;20126;-49
2022/04/07 05:59:22;;;;;;;2.78;2.00;;;;;;;;;;5082797;28;20048;-49
2022/04/07 06:01:48;;;;;;;10.77;4.88;;;;;;;;;;5086568;28;20044;-48
2022/04/07 06:04:13;;;;;;;10.15;3.95;;;;;;;;;;5081933;28;20067;-48
2022/04/07 06:06:39;;;;;;;4.13;2.80;;;;;;;;;;5085238;28;20047;-47
2022/04/07 06:09:05;;;;;;;18.23;4.38;;;;;;;;;;5080888;28;20039;-47
2022/04/07 06:11:30;;;;;;;6.43;3.30;;;;;;;;;;5081794;28;20096;-41
2022/04/07 06:13:55;;;;;;;8.57;2.95;;;;;;;;;;5080252;28;20503;-46
2022/04/07 06:16:20;;;;;;;20.33;5.97;;;;;;;;;;5080843;28;20045;-44
2022/04/07 06:18:46;;;;;;;18.15;7.57;;;;;;;;;;5076636;28;20051;-42
2022/04/07 06:21:11;;;;;;;24.75;5.65;;;;;;;;;;5085651;28;20040;-41
2022/04/07 06:23:36;;;;;;;6.28;4.25;;;;;;;;;;5084148;28;20097;-44
2022/04/07 06:26:02;;;;;;;10.52;4.78;;;;;;;;;;5067803;28;20553;-44
2022/04/07 06:28:27;;;;;;;10.00;3.72;;;;;;;;;;5084986;28;20040;-40
2022/04/07 06:30:54;;;;;;;7.15;6.28;;;;;;;;;;5084910;28;20383;-41
2022/04/07 06:33:20;;;;;;;8.68;6.70;;;;;;;;;;5082141;28;20060;-40
2022/04/07 06:35:45;;;;;;;16.48;9.63;;;;;;;;;;5084490;28;20044;-43
2022/04/07 06:38:10;;;;;;;9.50;6.75;;;;;;;;;;5080792;28;20044;-41
2022/04/07 06:40:36;;;;;;;9.93;3.85;;;;;;;;;;5082666;28;20036;-45
2022/04/07 06:43:01;;;;;;;21.08;6.13;;;;;;;;;;5086403;28;20411;-44
2022/04/07 06:45:27;;;;;;;9.30;4.40;;;;;;;;;;5083453;28;20067;-42
2022/04/07 06:47:52;;;;;;;28.83;13.80;;;;;;;;;;5084667;28;20052;-42
2022/04/07 06:50:20;;;;;;;12.57;6.13;;;;;;;;;;5084374;28;20044;-44
2022/04/07 06:52:46;;;;;;;6.45;3.22;;;;;;;;;;5082863;28;20093;-42
2022/04/07 06:55:12;;;;;;;7.05;3.90;;;;;;;;;;5077652;28;20044;-43
2022/04/07 06:57:50;;;;;;;6.90;4.47;;;;;;;;;;5083581;28;20082;-44
2022/04/07 07:00:17;;;;;;;8.18;6.70;;;;;;;;;;5081479;28;20040;-47
2022/04/07 07:02:44;;;;;;;10.50;6.40;;;;;;;;;;5085630;28;20095;-43
2022/04/07 07:05:09;;;;;;;10.57;6.13;;;;;;;;;;5086337;28;20067;-44
2022/04/07 07:07:35;;;;;;;5.55;3.55;;;;;;;;;;5085090;28;20495;-46
2022/04/07 07:10:00;;;;;;;12.82;3.05;;;;;;;;;;5080488;28;20166;-44
2022/04/07 07:12:26;;;;;;;10.15;9.00;;;;;;;;;;5082147;28;20056;-45
2022/04/07 07:14:52;;;;;;;9.93;7.47;;;;;;;;;;5083338;28;20136;-47
2022/04/07 07:17:17;;;;;;;4.97;3.72;;;;;;;;;;5081308;28;20619;-42
2022/04/07 07:19:42;;;;;;;13.50;9.93;;;;;;;;;;5083817;28;20473;-43
2022/04/07 07:22:08;;;;;;;25.80;12.05;;;;;;;;;;5083846;28;20040;-41
2022/04/07 07:24:33;;;;;;;11.32;9.85;;;;;;;;;;5083271;28;20048;-42
2022/04/07 07:26:58;;;;;;;12.02;6.60;;;;;;;;;;5084546;28;20100;-47
2022/04/07 07:29:24;;;;;;;10.30;6.07;;;;;;;;;;5081978;28;20039;-44
2022/04/07 07:31:49;;;;;;;48.28;9.40;;;;;;;;;;5080697;28;20436;-44
2022/04/07 07:34:14;;;;;;;14.20;12.15;;;;;;;;;;5084793;28;20181;-43
2022/04/07 07:36:40;;;;;;;11.25;7.40;;;;;;;;;;5082463;28;20047;-45
2022/04/07 07:39:05;;;;;;;6.38;5.05;;;;;;;;;;5082931;28;20444;-40
2022/04/07 07:41:30;;;;;;;21.95;9.40;;;;;;;;;;5081390;28;20626;-41
2022/04/07 07:43:55;;;;;;;22.67;9.90;;;;;;;;;;5081940;28;20484;-42
2022/04/07 07:46:21;;;;;;;33.17;10.85;;;;;;;;;;5080688;28;20044;-45
2022/04/07 07:48:46;;;;;;;12.63;10.52;;;;;;;;;;5082038;28;20063;-45
2022/04/07 07:51:11;;;;;;;35.50;32.10;;;;;;;;;;5082140;28;20044;-47
2022/04/07 07:53:37;;;;;;;16.45;13.23;;;;;;;;;;5081553;28;20036;-43
2022/04/07 07:56:02;;;;;;;20.50;9.90;;;;;;;;;;5081159;28;20040;-43
2022/04/07 07:58:27;;;;;;;22.75;10.07;;;;;;;;;;5064318;28;20060;-45
2022/04/07 08:00:53;;;;;;;24.65;6.38;;;;;;;;;;5082036;28;20036;-44
2022/04/07 08:03:19;;;;;;;27.58;11.88;;;;;;;;;;5082193;28;20048;-45
2022/04/07 08:05:44;;;;;;;26.23;15.18;;;;;;;;;;5083771;28;20040;-47
2022/04/07 08:08:11;;;;;;;14.60;11.27;;;;;;;;;;5082684;28;20485;-44
2022/04/07 08:10:36;;;;;;;13.63;11.40;;;;;;;;;;5084336;28;20056;-45
2022/04/07 08:13:02;;;;;;;28.33;11.50;;;;;;;;;;5082081;28;20036;-48
2022/04/07 08:15:27;;;;;;;13.75;8.05;;;;;;;;;;5084290;28;20626;-44
2022/04/07 08:17:53;;;;;;;9.15;5.38;;;;;;;;;;5084797;28;20051;-45
2022/04/07 08:20:18;;;;;;;20.92;4.78;;;;;;;;;;5081132;28;20052;-44
2022/04/07 08:22:43;;;;;;;9.25;5.78;;;;;;;;;;5080518;28;20049;-45
2022/04/07 08:25:09;;;;;;;12.43;7.13;;;;;;;;;;5080944;28;20043;-47
2022/04/07 08:27:34;;;;;;;18.27;6.22;;;;;;;;;;5081508;28;20040;-44
2022/04/07 08:30:00;;;;;;;4.90;3.55;;;;;;;;;;5076174;28;20052;-48
2022/04/07 08:32:26;;;;;;;11.98;4.82;;;;;;;;;;5079189;28;20044;-46
2022/04/07 08:34:51;;;;;;;5.97;3.65;;;;;;;;;;5084340;28;20191;-49
2022/04/07 08:37:17;;;;;;;9.75;8.38;;;;;;;;;;5084230;28;20113;-44
2022/04/07 08:39:42;;;;;;;6.43;4.97;;;;;;;;;;5082651;28;20547;-44
2022/04/07 08:42:07;;;;;;;11.55;5.60;;;;;;;;;;5079837;28;20051;-48
2022/04/07 08:44:33;;;;;;;11.77;3.80;;;;;;;;;;5080013;28;20033;-47
2022/04/07 08:46:59;;;;;;;13.10;5.60;;;;;;;;;;5079456;28;20032;-46
2022/04/07 08:49:25;;;;;;;15.30;6.03;;;;;;;;;;5080106;28;20052;-44
2022/04/07 08:51:52;;;;;;;4.57;3.10;;;;;;;;;;5080387;28;20427;-44
2022/04/07 08:54:18;;;;;;;3.47;2.22;;;;;;;;;;5083263;28;20122;-46
2022/04/07 08:56:44;;;;;;;13.52;6.05;;;;;;;;;;5079711;28;20570;-44
2022/04/07 08:59:09;;;;;;;11.27;4.95;;;;;;;;;;5080182;28;20143;-45
2022/04/07 09:01:34;;;;;;;10.60;3.25;;;;;;;;;;5080130;28;20396;-45
2022/04/07 09:04:00;;;;;;;5.65;3.45;;;;;;;;;;5084084;28;20040;-45
2022/04/07 09:06:25;;;;;;;7.22;4.75;;;;;;;;;;5083733;28;20043;-44
2022/04/07 09:08:51;;;;;;;9.57;5.82;;;;;;;;;;5084444;28;20450;-48
2022/04/07 09:11:17;;;;;;;9.32;5.60;;;;;;;;;;5081681;28;20036;-45
2022/04/07 09:13:44;;;;;;;7.95;3.40;;;;;;;;;;5076553;28;20424;-48
2022/04/07 09:16:12;;;;;;;10.05;5.53;;;;;;;;;;5076453;28;20056;-45
2022/04/07 09:18:38;;;;;;;9.60;2.83;;;;;;;;;;5076900;28;20052;-44
2022/04/07 09:21:04;;;;;;;4.47;1.95;;;;;;;;;;5077328;28;20044;-45
2022/04/07 09:23:39;;;;;;;5.75;3.60;;;;;;;;;;5085453;28;20040;-51
2022/04/07 09:26:05;;;;;;;10.65;6.60;;;;;;;;;;5087032;28;20043;-45
2022/04/07 09:28:31;;;;;;;8.18;5.20;;;;;;;;;;5083934;28;20051;-44
2022/04/07 09:30:57;;;;;;;5.63;2.25;;;;;;;;;;5086030;28;20054;-46
2022/04/07 09:33:23;;;;;;;8.93;4.55;;;;;;;;;;5085598;28;20051;-43
2022/04/07 09:36:01;;;;;;;14.15;9.18;;;;;;;;;;5086046;28;20496;-43
2022/04/07 09:38:27;;;;;;;19.02;11.18;;;;;;;;;;5086661;28;20128;-47
2022/04/07 09:40:53;;;;;;;5.20;2.72;;;;;;;;;;5087164;28;20138;-47
2022/04/07 09:43:20;;;;;;;20.83;16.25;;;;;;;;;;5085821;28;20119;-44
2022/04/07 09:45:45;;;;;;;40.08;27.95;;;;;;;;;;5083289;28;20672;-47
2022/04/07 09:48:17;;;;;;;15.27;10.23;;;;;;;;;;5083528;28;20157;-45
2022/04/07 09:50:42;;;;;;;5.40;3.33;;;;;;;;;;5083517;28;20507;-46
2022/04/07 09:53:09;;;;;;;3.25;2.05;;;;;;;;;;5084865;28;20047;-46
2022/04/07 09:55:34;;;;;;;7.63;1.75;;;;;;;;;;5083714;28;20548;-47
2022/04/07 09:58:01;;;;;;;11.95;6.50;;;;;;;;;;5083127;28;20228;-45
2022/04/07 10:00:27;;;;;;;10.95;5.70;;;;;;;;;;5084851;28;20048;-45
2022/04/07 10:02:53;;;;;;;12.25;7.55;;;;;;;;;;5084186;28;20356;-46
2022/04/07 10:05:19;;;;;;;10.32;5.32;;;;;;;;;;5080950;28;20382;-44
2022/04/07 10:07:45;;;;;;;32.05;3.38;;;;;;;;;;5082522;28;20490;-44
2022/04/07 10:10:11;;;;;;;7.88;2.38;;;;;;;;;;5084361;28;20447;-43
2022/04/07 10:12:36;;;;;;;4.75;2.65;;;;;;;;;;5079810;28;20043;-46
2022/04/07 10:15:05;;;;;;;10.48;6.10;;;;;;;;;;5086634;28;20221;-45
2022/04/07 10:17:30;;;;;;;3.50;1.67;;;;;;;;;;5083056;28;20134;-42
2022/04/07 10:20:05;;;;;;;10.45;2.70;;;;;;;;;;5085847;28;20194;-45
2022/04/07 10:22:36;;;;;;;4.50;1.67;;;;;;;;;;5083099;28;20031;-45
2022/04/07 10:25:03;;;;;;;23.83;5.75;;;;;;;;;;5082049;28;20048;-44
2022/04/07 10:27:33;;;;;;;4.80;3.28;;;;;;;;;;5081730;28;20090;-46
2022/04/07 10:30:04;;;;;;;5.93;3.40;;;;;;;;;;5081225;28;20147;-47
2022/04/07 10:32:36;;;;;;;4.88;2.58;;;;;;;;;;5084015;28;20051;-44
2022/04/07 10:35:03;;;;;;;17.98;3.78;;;;;;;;;;5084623;28;20113;-47
2022/04/07 10:37:29;;;;;;;6.20;2.58;;;;;;;;;;5080874;28;20908;-44
2022/04/07 10:39:55;;;;;;;3.53;1.85;;;;;;;;;;5080052;28;20093;-42
2022/04/07 10:42:40;;;;;;;2.33;1.23;;;;;;;;;;5084039;28;20044;-46
2022/04/07 10:45:05;;;;;;;5.57;4.40;;;;;;;;;;5080693;28;20063;-42
2022/04/07 10:47:32;;;;;;;4.53;2.22;;;;;;;;;;5084240;28;20100;-47
2022/04/07 10:49:58;;;;;;;1.77;0.85;;;;;;;;;;5082551;28;20051;-47
2022/04/07 10:52:27;;;;;;;1.30;0.90;;;;;;;;;;5083230;28;20521;-44
2022/04/07 10:55:11;;;;;;;3.50;2.38;;;;;;;;;;5080138;28;20058;-46
2022/04/07 10:57:56;;;;;;;13.55;3.92;;;;;;;;;;5080999;28;20076;-44
2022/04/07 11:00:22;;;;;;;4.65;2.30;;;;;;;;;;5082697;28;20127;-50
2022/04/07 11:03:07;;;;;;;3.00;1.48;;;;;;;;;;5084245;28;20127;-45
2022/04/07 11:05:41;;;;;;;4.65;2.92;;;;;;;;;;5082913;28;20044;-49
2022/04/07 11:08:06;;;;;;;13.30;3.50;;;;;;;;;;5078469;28;20086;-48
2022/04/07 11:10:39;;;;;;;16.35;3.08;;;;;;;;;;5083513;28;20044;-44
2022/04/07 11:13:04;;;;;;;19.95;4.85;;;;;;;;;;5079278;28;20081;-44
2022/04/07 11:15:42;;;;;;;5.72;3.53;;;;;;;;;;5080985;28;20051;-46
2022/04/07 11:18:27;;;;;;;9.02;3.75;;;;;;;;;;5084231;28;20048;-46
2022/04/07 11:20:59;;;;;;;4.78;1.50;;;;;;;;;;5037787;28;20090;-45
2022/04/07 11:23:43;;;;;;;2.75;1.70;;;;;;;;;;5079509;28;20054;-44
2022/04/07 11:26:09;;;;;;;8.55;3.53;;;;;;;;;;5083523;28;20048;-47
2022/04/07 11:28:37;;;;;;;9.68;4.20;;;;;;;;;;5082473;28;20518;-50
2022/04/07 11:31:04;;;;;;;24.08;3.80;;;;;;;;;;5084954;28;20127;-44
2022/04/07 11:33:35;;;;;;;3.92;3.33;;;;;;;;;;5084729;28;20169;-48
2022/04/07 11:36:02;;;;;;;3.03;1.60;;;;;;;;;;5081873;28;20393;-46
2022/04/07 11:38:35;;;;;;;6.25;2.97;;;;;;;;;;5083195;28;20048;-48
2022/04/07 11:41:01;;;;;;;10.98;2.80;;;;;;;;;;5082452;28;20054;-45
2022/04/07 11:43:26;;;;;;;5.93;2.35;;;;;;;;;;5078090;28;20052;-44
2022/04/07 11:45:55;;;;;;;3.25;1.38;;;;;;;;;;5082627;28;20400;-46
2022/04/07 11:48:20;;;;;;;1.23;0.85;;;;;;;;;;5081527;28;20048;-43
2022/04/07 11:50:46;;;;;;;17.23;4.63;;;;;;;;;;5086219;28;20466;-47
2022/04/07 11:53:11;;;;;;;1.75;0.95;;;;;;;;;;5082687;28;20075;-48
2022/04/07 11:55:36;;;;;;;1.33;1.15;;;;;;;;;;5081801;28;20090;-45
2022/04/07 11:58:02;;;;;;;8.98;3.00;;;;;;;;;;5079401;28;20097;-45
2022/04/07 12:00:31;;;;;;;6.43;3.80;;;;;;;;;;5080128;28;20467;-46
2022/04/07 12:03:06;;;;;;;3.50;1.38;;;;;;;;;;5080803;28;20376;-49
2022/04/07 12:05:36;;;;;;;22.20;3.90;;;;;;;;;;5080420;28;20040;-48
2022/04/07 12:08:20;;;;;;;13.70;3.03;;;;;;;;;;5082037;28;20466;-43
2022/04/07 12:10:46;;;;;;;9.93;1.77;;;;;;;;;;5080765;28;20044;-41
2022/04/07 12:13:11;;;;;;;3.92;1.08;;;;;;;;;;5079138;28;20101;-45
2022/04/07 12:15:37;;;;;;;1.33;0.75;;;;;;;;;;5080149;28;20523;-44
2022/04/07 12:18:04;;;;;;;3.50;2.50;;;;;;;;;;5084779;28;20040;-42
2022/04/07 12:20:30;;;;;;;10.20;1.38;;;;;;;;;;5080398;28;20131;-44
2022/04/07 12:23:07;;;;;;;5.72;2.53;;;;;;;;;;5081676;28;20134;-44
2022/04/07 12:25:33;;;;;;;3.08;2.35;;;;;;;;;;5082120;28;20332;-44
2022/04/07 12:28:12;;;;;;;8.65;2.67;;;;;;;;;;5082411;28;20523;-44
2022/04/07 12:30:44;;;;;;;7.07;3.28;;;;;;;;;;5081222;28;20056;-46
2022/04/07 12:33:09;;;;;;;7.68;3.17;;;;;;;;;;5082132;28;20109;-48
2022/04/07 12:35:49;;;;;;;17.73;4.03;;;;;;;;;;5083485;28;20123;-45
2022/04/07 12:38:14;;;;;;;15.38;5.30;;;;;;;;;;5082076;28;20048;-47
2022/04/07 12:40:39;;;;;;;17.55;9.52;;;;;;;;;;5083017;28;20173;-43
2022/04/07 12:43:05;;;;;;;12.80;4.70;;;;;;;;;;5083856;28;20043;-43
2022/04/07 12:45:30;;;;;;;7.93;5.95;;;;;;;;;;5082031;28;20133;-46
2022/04/07 12:48:06;;;;;;;10.95;6.25;;;;;;;;;;5080327;28;20048;-46
2022/04/07 12:50:33;;;;;;;5.70;2.80;;;;;;;;;;5076034;28;20044;-49
2022/04/07 12:52:59;;;;;;;9.32;3.55;;;;;;;;;;5083289;28;20183;-44
2022/04/07 12:55:31;;;;;;;16.13;4.78;;;;;;;;;;5078982;28;20547;-46
2022/04/07 12:57:58;;;;;;;11.80;4.65;;;;;;;;;;5088410;28;20093;-45
2022/04/07 13:00:23;;;;;;;7.43;4.10;;;;;;;;;;5085148;28;20389;-43
2022/04/07 13:02:52;;;;;;;5.60;3.38;;;;;;;;;;5087023;28;20097;-43
2022/04/07 13:05:31;;;;;;;7.85;4.75;;;;;;;;;;5083700;28;20063;-43
2022/04/07 13:07:58;;;;;;;18.88;9.73;;;;;;;;;;5086767;28;20075;-41
2022/04/07 13:10:23;;;;;;;9.15;4.25;;;;;;;;;;5083317;28;20195;-40
2022/04/07 13:12:49;;;;;;;12.00;5.72;;;;;;;;;;5085733;28;20499;-41
2022/04/07 13:15:14;;;;;;;13.15;4.05;;;;;;;;;;5085066;28;20453;-43
2022/04/07 13:17:40;;;;;;;3.60;2.35;;;;;;;;;;5083097;28;20052;-45
2022/04/07 13:20:06;;;;;;;11.52;6.32;;;;;;;;;;5086823;28;20048;-49
2022/04/07 13:22:31;;;;;;;11.45;7.35;;;;;;;;;;5084228;28;20048;-42
2022/04/07 13:24:58;;;;;;;7.68;3.95;;;;;;;;;;5086175;28;22383;-42
2022/04/07 13:27:24;;;;;;;8.82;2.90;;;;;;;;;;5085535;28;20048;-44
2022/04/07 13:29:49;;;;;;;13.10;5.18;;;;;;;;;;5085693;28;20456;-44
2022/04/07 13:32:14;;;;;;;7.05;3.70;;;;;;;;;;5081967;28;20051;-44
2022/04/07 13:34:40;;;;;;;3.90;2.67;;;;;;;;;;5084152;28;20778;-45
2022/04/07 13:37:05;;;;;;;8.02;3.08;;;;;;;;;;5083570;28;20506;-42
2022/04/07 13:39:31;;;;;;;5.82;2.75;;;;;;;;;;5088071;28;20098;-47
2022/04/07 13:41:56;;;;;;;5.57;3.92;;;;;;;;;;5088740;28;20499;-41
2022/04/07 13:44:21;;;;;;;13.20;2.78;;;;;;;;;;5084499;28;20533;-44
2022/04/07 13:46:47;;;;;;;3.83;2.13;;;;;;;;;;5086790;28;20682;-41
2022/04/07 13:49:13;;;;;;;4.25;2.30;;;;;;;;;;5084067;28;20153;-47
2022/04/07 13:51:40;;;;;;;6.22;2.30;;;;;;;;;;5086202;28;20085;-41
2022/04/07 13:54:05;;;;;;;4.70;2.00;;;;;;;;;;5086474;28;20415;-44
2022/04/07 13:56:30;;;;;;;4.43;2.42;;;;;;;;;;5084037;28;20058;-42
2022/04/07 13:58:55;;;;;;;8.43;3.88;;;;;;;;;;5082409;28;20046;-42
2022/04/07 14:01:21;;;;;;;4.53;1.63;;;;;;;;;;5084244;28;20039;-43
2022/04/07 14:03:47;;;;;;;6.55;2.78;;;;;;;;;;5085957;28;20416;-44
2022/04/07 14:06:12;;;;;;;9.25;2.90;;;;;;;;;;5084731;28;20046;-45
2022/04/07 14:08:38;;;;;;;3.20;1.55;;;;;;;;;;5086093;28;20044;-45
2022/04/07 14:11:04;;;;;;;20.63;2.08;;;;;;;;;;5084467;28;20493;-50
2022/04/07 14:13:29;;;;;;;3.63;2.03;;;;;;;;;;5086012;28;20136;-45
2022/04/07 14:15:55;;;;;;;5.40;3.20;;;;;;;;;;5083553;28;20071;-43
2022/04/07 14:18:21;;;;;;;10.77;2.88;;;;;;;;;;5085929;28;20455;-44
2022/04/07 14:20:47;;;;;;;3.88;2.22;;;;;;;;;;5085695;28;20050;-44
2022/04/07 14:23:12;;;;;;;5.60;3.08;;;;;;;;;;5079543;28;20044;-43
2022/04/07 14:25:38;;;;;;;2.03;1.08;;;;;;;;;;5084361;28;20514;-42
2022/04/07 14:28:04;;;;;;;3.78;2.53;;;;;;;;;;5078709;28;20040;-47
2022/04/07 14:30:29;;;;;;;1.08;0.73;;;;;;;;;;5085798;28;20052;-42
2022/04/07 14:32:55;;;;;;;0.77;0.65;;;;;;;;;;5083349;28;20044;-43
2022/04/07 14:35:21;;;;;;;5.15;3.08;;;;;;;;;;5084161;28;20054;-44